Creek Data

    Home     View Charts     View Raw Data     Messages

ID Distance Battery Voltage Battery Current Internal Temp Internal Humidity External Temp Solar Input rssi snr Time Stamp Record
64679 15.0 3.80 5 66 46 58 5.1 -74 7 01/28/2026 01:30 PM 47440
64678 15.0 3.80 6 66 46 59 5.1 -72 8 01/28/2026 01:15 PM 47439
64677 15.0 3.80 5 65 46 58 5.1 -75 7 01/28/2026 01:00 PM 47438
64676 15.0 3.83 5 64 46 58 5.1 -74 8 01/28/2026 12:45 PM 47437
64675 15.0 3.80 5 64 46 58 5.1 -74 8 01/28/2026 12:30 PM 47436
64674 15.0 3.81 5 63 47 57 5.1 -74 8 01/28/2026 12:15 PM 47435
64673 15.0 3.79 0 62 47 56 5.1 -73 8 01/28/2026 12:00 PM 47434
64672 15.0 3.80 5 60 47 56 5.1 -74 8 01/28/2026 11:45 AM 47433
64671 15.0 3.80 0 60 47 55 5.1 -75 8 01/28/2026 11:30 AM 47432
64670 15.0 3.80 0 60 47 56 5.1 -75 8 01/28/2026 11:15 AM 47431
64669 14.9 3.80 0 58 47 55 5.1 -74 8 01/28/2026 11:00 AM 47430
64668 15.0 3.80 6 58 47 54 5.1 -75 7 01/28/2026 10:45 AM 47429
64667 15.0 3.80 0 57 47 54 5.1 -73 8 01/28/2026 10:30 AM 47428
64666 15.0 3.80 0 57 47 54 5.1 -73 8 01/28/2026 10:15 AM 47427
64665 15.0 3.80 0 56 47 54 5.1 -73 8 01/28/2026 10:00 AM 47426
64664 15.0 3.81 8 55 47 54 5.1 -73 8 01/28/2026 09:45 AM 47425
64663 15.0 3.80 0 54 47 53 5.1 -74 7 01/28/2026 09:30 AM 47424
64662 15.0 3.80 8 53 47 53 5.1 -72 6 01/28/2026 09:15 AM 47423
64661 14.9 3.80 8 51 47 53 5.1 -73 8 01/28/2026 09:00 AM 47422
64660 14.9 3.80 0 50 47 51 5.1 -75 8 01/28/2026 08:45 AM 47421
64659 14.9 4.01 45 49 48 50 4.5 -74 8 01/28/2026 08:30 AM 47420
64658 14.9 3.86 33 47 48 49 4.5 -74 7 01/28/2026 08:15 AM 47419
64657 14.8 3.85 38 46 49 48 4.5 -75 9 01/28/2026 08:00 AM 47418
64656 14.9 3.76 11 45 49 46 4.5 -77 8 01/28/2026 07:45 AM 47417
64655 14.8 3.69 0 45 50 46 4.5 -76 9 01/28/2026 07:30 AM 47416